This is the latest recevied weather packets stored in our database for station/object DL3TR-13. If no packets are shown the sender has not sent any weather packets the latest 1 day(s).
| Time | Temp. | Humidity | Pressure | Rain* | Wind** | Luminosity | Snow |
|---|---|---|---|---|---|---|---|
| 1778094191 | 8.33° C | 89% | 1008.8 hPa | 0 mm | - | 0 W/m² | - |
| 1778093591 | 8.33° C | 89% | 1008.6 hPa | 0 mm | - | 0 W/m² | - |
| 1778092991 | 8.33° C | 89% | 1008.6 hPa | 0 mm | - | 0 W/m² | - |
| 1778092391 | 8.33° C | 89% | 1008.6 hPa | 0 mm | - | 5 W/m² | - |
| 1778091791 | 8.33° C | 88% | 1008.4 hPa | 0 mm | - | 23 W/m² | - |
| 1778090591 | 9.44° C | 86% | 1008.2 hPa | 0 mm | - | 21 W/m² | - |
| 1778089991 | 9.44° C | 87% | 1008.1 hPa | 0 mm | - | 51 W/m² | - |
| 1778089391 | 10° C | 87% | 1008.2 hPa | 0 mm | - | 62 W/m² | - |
| 1778088791 | 10° C | 87% | 1008 hPa | 0 mm | - | 62 W/m² | - |
| 1778087591 | 10° C | 87% | 1007.8 hPa | 0 mm | - | 144 W/m² | - |
| 1778086991 | 10° C | 86% | 1007.6 hPa | 0 mm | - | 107 W/m² | - |
| 1778086391 | 10.56° C | 87% | 1007.6 hPa | 0 mm | - | 155 W/m² | - |
| 1778085191 | 9.44° C | 89% | 1007.6 hPa | 0 mm | - | 142 W/m² | - |
| 1778083991 | 9.44° C | 89% | 1007.9 hPa | 0 mm | - | 90 W/m² | - |
| 1778082791 | 9.44° C | 88% | 1007.8 hPa | 0 mm | - | 102 W/m² | - |
| 1778082191 | 10° C | 88% | 1007.6 hPa | 0 mm | - | 120 W/m² | - |
| 1778080991 | 9.44° C | 88% | 1006.9 hPa | 0.25 mm | - | 155 W/m² | - |
| 1778080391 | 10° C | 90% | 1006.8 hPa | 0.25 mm | - | 243 W/m² | - |
| 1778078591 | 10° C | 83% | 1006.1 hPa | 0.25 mm | - | 163 W/m² | - |
| 1778076791 | 15.56° C | 76% | 1004.7 hPa | 0.25 mm | - | 327 W/m² | - |
| 1778075591 | 15.56° C | 73% | 1004.3 hPa | 0.51 mm | - | 745 W/m² | - |
| 1778074991 | 15° C | 73% | 1004.4 hPa | 0.51 mm | - | 693 W/m² | - |
| 1778074391 | 14.44° C | 82% | 1004.4 hPa | 0.51 mm | - | 721 W/m² | - |
| 1778073791 | 13.33° C | 84% | 1004.5 hPa | 0.76 mm | - | 397 W/m² | - |
| 1778070191 | 14.44° C | 71% | 1004.7 hPa | 0 mm | - | 35 W/m² | - |
* Rain latest hour (hover to see other rain measurements)
** Current wind speed in m/s (hover to see current wind gust speed)